sensor_id;sensor_type;location;lat;lon;timestamp;P1;durP1;ratioP1;P2;durP2;ratioP2
19842;SDS011;10082;51.038;6.992;2023-07-30T00:00:11;3.88;;;3.38;;
19842;SDS011;10082;51.038;6.992;2023-07-30T00:02:39;4.32;;;3.60;;
19842;SDS011;10082;51.038;6.992;2023-07-30T00:05:06;3.35;;;3.10;;
19842;SDS011;10082;51.038;6.992;2023-07-30T00:07:34;10.05;;;3.72;;
19842;SDS011;10082;51.038;6.992;2023-07-30T00:10:03;3.78;;;3.28;;
19842;SDS011;10082;51.038;6.992;2023-07-30T00:12:31;4.80;;;3.72;;
19842;SDS011;10082;51.038;6.992;2023-07-30T00:14:58;4.13;;;3.15;;
19842;SDS011;10082;51.038;6.992;2023-07-30T00:17:25;3.20;;;2.90;;
19842;SDS011;10082;51.038;6.992;2023-07-30T00:19:52;4.22;;;3.13;;
19842;SDS011;10082;51.038;6.992;2023-07-30T00:22:19;4.93;;;3.35;;
19842;SDS011;10082;51.038;6.992;2023-07-30T00:24:46;4.20;;;3.67;;
19842;SDS011;10082;51.038;6.992;2023-07-30T00:27:15;3.72;;;3.15;;
19842;SDS011;10082;51.038;6.992;2023-07-30T00:29:42;4.85;;;3.53;;
19842;SDS011;10082;51.038;6.992;2023-07-30T00:32:10;3.40;;;3.10;;
19842;SDS011;10082;51.038;6.992;2023-07-30T00:34:41;5.70;;;3.40;;
19842;SDS011;10082;51.038;6.992;2023-07-30T00:37:08;3.80;;;3.40;;
19842;SDS011;10082;51.038;6.992;2023-07-30T00:39:37;4.70;;;3.72;;
19842;SDS011;10082;51.038;6.992;2023-07-30T00:42:04;4.35;;;3.05;;
19842;SDS011;10082;51.038;6.992;2023-07-30T00:44:34;3.78;;;3.25;;
19842;SDS011;10082;51.038;6.992;2023-07-30T00:46:59;4.03;;;3.35;;
19842;SDS011;10082;51.038;6.992;2023-07-30T00:49:27;3.40;;;3.10;;
19842;SDS011;10082;51.038;6.992;2023-07-30T00:51:54;3.95;;;3.35;;
19842;SDS011;10082;51.038;6.992;2023-07-30T00:54:23;3.38;;;3.05;;
19842;SDS011;10082;51.038;6.992;2023-07-30T00:56:52;4.00;;;3.47;;
19842;SDS011;10082;51.038;6.992;2023-07-30T00:59:20;5.38;;;3.17;;
19842;SDS011;10082;51.038;6.992;2023-07-30T01:01:51;4.72;;;3.05;;
19842;SDS011;10082;51.038;6.992;2023-07-30T01:04:19;4.75;;;2.80;;
19842;SDS011;10082;51.038;6.992;2023-07-30T01:06:46;5.00;;;3.30;;
19842;SDS011;10082;51.038;6.992;2023-07-30T01:09:14;4.32;;;2.55;;
19842;SDS011;10082;51.038;6.992;2023-07-30T01:11:42;4.43;;;3.35;;
19842;SDS011;10082;51.038;6.992;2023-07-30T01:14:13;4.10;;;3.08;;
19842;SDS011;10082;51.038;6.992;2023-07-30T01:16:41;3.67;;;3.08;;
19842;SDS011;10082;51.038;6.992;2023-07-30T01:19:10;4.30;;;3.10;;
19842;SDS011;10082;51.038;6.992;2023-07-30T01:21:39;3.55;;;3.00;;
19842;SDS011;10082;51.038;6.992;2023-07-30T01:24:07;3.55;;;3.17;;
19842;SDS011;10082;51.038;6.992;2023-07-30T01:26:36;4.32;;;3.15;;
19842;SDS011;10082;51.038;6.992;2023-07-30T01:29:07;5.35;;;3.40;;
19842;SDS011;10082;51.038;6.992;2023-07-30T01:31:38;4.28;;;3.65;;
19842;SDS011;10082;51.038;6.992;2023-07-30T01:34:08;6.13;;;4.20;;
19842;SDS011;10082;51.038;6.992;2023-07-30T01:36:39;4.20;;;3.80;;
19842;SDS011;10082;51.038;6.992;2023-07-30T01:39:07;5.80;;;3.97;;
19842;SDS011;10082;51.038;6.992;2023-07-30T01:41:37;4.97;;;3.30;;
19842;SDS011;10082;51.038;6.992;2023-07-30T01:44:05;4.95;;;3.40;;
19842;SDS011;10082;51.038;6.992;2023-07-30T01:46:32;4.38;;;2.95;;
19842;SDS011;10082;51.038;6.992;2023-07-30T01:48:59;6.07;;;3.45;;
19842;SDS011;10082;51.038;6.992;2023-07-30T01:51:28;4.50;;;3.10;;
19842;SDS011;10082;51.038;6.992;2023-07-30T01:53:56;5.22;;;3.00;;
19842;SDS011;10082;51.038;6.992;2023-07-30T01:56:24;4.38;;;3.15;;
19842;SDS011;10082;51.038;6.992;2023-07-30T01:58:51;3.47;;;2.58;;
19842;SDS011;10082;51.038;6.992;2023-07-30T02:01:20;3.33;;;3.03;;
19842;SDS011;10082;51.038;6.992;2023-07-30T02:03:47;5.22;;;2.55;;
19842;SDS011;10082;51.038;6.992;2023-07-30T02:06:15;4.43;;;2.53;;
19842;SDS011;10082;51.038;6.992;2023-07-30T02:08:42;4.20;;;2.83;;
19842;SDS011;10082;51.038;6.992;2023-07-30T02:11:11;4.28;;;2.53;;
19842;SDS011;10082;51.038;6.992;2023-07-30T02:13:38;4.05;;;2.75;;
19842;SDS011;10082;51.038;6.992;2023-07-30T02:16:06;2.90;;;2.60;;
19842;SDS011;10082;51.038;6.992;2023-07-30T02:18:33;3.22;;;2.78;;
19842;SDS011;10082;51.038;6.992;2023-07-30T02:21:01;4.00;;;3.00;;
19842;SDS011;10082;51.038;6.992;2023-07-30T02:23:28;4.25;;;2.60;;
19842;SDS011;10082;51.038;6.992;2023-07-30T02:25:55;3.85;;;2.30;;
19842;SDS011;10082;51.038;6.992;2023-07-30T02:28:24;3.65;;;2.80;;
19842;SDS011;10082;51.038;6.992;2023-07-30T02:30:51;3.55;;;2.63;;
19842;SDS011;10082;51.038;6.992;2023-07-30T02:33:21;3.08;;;2.72;;
19842;SDS011;10082;51.038;6.992;2023-07-30T02:35:48;3.33;;;2.63;;
19842;SDS011;10082;51.038;6.992;2023-07-30T02:38:16;5.13;;;2.60;;
19842;SDS011;10082;51.038;6.992;2023-07-30T02:40:44;3.70;;;2.88;;
19842;SDS011;10082;51.038;6.992;2023-07-30T02:43:16;3.03;;;2.40;;
19842;SDS011;10082;51.038;6.992;2023-07-30T02:45:48;3.75;;;2.63;;
19842;SDS011;10082;51.038;6.992;2023-07-30T02:48:16;3.65;;;2.50;;
19842;SDS011;10082;51.038;6.992;2023-07-30T02:50:44;3.83;;;2.88;;
19842;SDS011;10082;51.038;6.992;2023-07-30T02:53:14;6.25;;;2.80;;
19842;SDS011;10082;51.038;6.992;2023-07-30T02:55:42;4.13;;;2.55;;
19842;SDS011;10082;51.038;6.992;2023-07-30T02:58:09;3.80;;;2.70;;
19842;SDS011;10082;51.038;6.992;2023-07-30T03:00:36;3.45;;;2.90;;
19842;SDS011;10082;51.038;6.992;2023-07-30T03:03:06;4.65;;;2.70;;
19842;SDS011;10082;51.038;6.992;2023-07-30T03:05:33;5.35;;;3.00;;
19842;SDS011;10082;51.038;6.992;2023-07-30T03:08:01;2.97;;;2.60;;
19842;SDS011;10082;51.038;6.992;2023-07-30T03:10:28;4.70;;;3.08;;
19842;SDS011;10082;51.038;6.992;2023-07-30T03:12:56;5.55;;;2.95;;
19842;SDS011;10082;51.038;6.992;2023-07-30T03:15:23;7.10;;;2.90;;
19842;SDS011;10082;51.038;6.992;2023-07-30T03:17:51;5.70;;;2.90;;
19842;SDS011;10082;51.038;6.992;2023-07-30T03:20:20;5.75;;;3.10;;
19842;SDS011;10082;51.038;6.992;2023-07-30T03:22:48;4.10;;;2.80;;
19842;SDS011;10082;51.038;6.992;2023-07-30T03:25:15;3.38;;;2.97;;
19842;SDS011;10082;51.038;6.992;2023-07-30T03:27:43;3.45;;;2.50;;
19842;SDS011;10082;51.038;6.992;2023-07-30T03:30:10;4.00;;;3.42;;
19842;SDS011;10082;51.038;6.992;2023-07-30T03:32:38;5.30;;;2.88;;
19842;SDS011;10082;51.038;6.992;2023-07-30T03:35:06;5.72;;;3.40;;
19842;SDS011;10082;51.038;6.992;2023-07-30T03:37:35;5.63;;;3.10;;
19842;SDS011;10082;51.038;6.992;2023-07-30T03:40:04;3.90;;;2.88;;
19842;SDS011;10082;51.038;6.992;2023-07-30T03:42:33;5.65;;;2.88;;
19842;SDS011;10082;51.038;6.992;2023-07-30T03:45:00;6.22;;;3.17;;
19842;SDS011;10082;51.038;6.992;2023-07-30T03:47:28;5.28;;;2.83;;
19842;SDS011;10082;51.038;6.992;2023-07-30T03:49:56;5.47;;;2.97;;
19842;SDS011;10082;51.038;6.992;2023-07-30T03:52:26;5.40;;;3.72;;
19842;SDS011;10082;51.038;6.992;2023-07-30T03:54:55;4.43;;;3.03;;
19842;SDS011;10082;51.038;6.992;2023-07-30T03:57:23;3.45;;;2.80;;
19842;SDS011;10082;51.038;6.992;2023-07-30T03:59:51;4.97;;;2.78;;
19842;SDS011;10082;51.038;6.992;2023-07-30T04:02:22;5.25;;;2.75;;
19842;SDS011;10082;51.038;6.992;2023-07-30T04:04:50;5.50;;;2.70;;
19842;SDS011;10082;51.038;6.992;2023-07-30T04:07:18;5.40;;;2.58;;
19842;SDS011;10082;51.038;6.992;2023-07-30T04:09:46;5.13;;;2.28;;
19842;SDS011;10082;51.038;6.992;2023-07-30T04:12:17;5.35;;;2.67;;
19842;SDS011;10082;51.038;6.992;2023-07-30T04:14:46;4.72;;;2.30;;
19842;SDS011;10082;51.038;6.992;2023-07-30T04:17:14;5.57;;;2.40;;
19842;SDS011;10082;51.038;6.992;2023-07-30T04:19:41;5.97;;;2.58;;
19842;SDS011;10082;51.038;6.992;2023-07-30T04:22:09;4.55;;;2.30;;
19842;SDS011;10082;51.038;6.992;2023-07-30T04:24:39;4.93;;;2.10;;
19842;SDS011;10082;51.038;6.992;2023-07-30T04:27:07;5.63;;;2.42;;
19842;SDS011;10082;51.038;6.992;2023-07-30T04:29:36;4.10;;;2.20;;
19842;SDS011;10082;51.038;6.992;2023-07-30T04:32:13;4.93;;;2.25;;
19842;SDS011;10082;51.038;6.992;2023-07-30T04:34:40;4.57;;;1.92;;
19842;SDS011;10082;51.038;6.992;2023-07-30T04:37:11;3.03;;;2.08;;
19842;SDS011;10082;51.038;6.992;2023-07-30T04:39:39;4.22;;;2.15;;
19842;SDS011;10082;51.038;6.992;2023-07-30T04:42:07;4.15;;;2.42;;
19842;SDS011;10082;51.038;6.992;2023-07-30T04:44:40;4.05;;;2.20;;
19842;SDS011;10082;51.038;6.992;2023-07-30T04:47:11;3.47;;;2.53;;
19842;SDS011;10082;51.038;6.992;2023-07-30T04:49:39;4.60;;;2.25;;
19842;SDS011;10082;51.038;6.992;2023-07-30T04:52:07;4.68;;;2.40;;
19842;SDS011;10082;51.038;6.992;2023-07-30T04:54:38;3.78;;;2.35;;
19842;SDS011;10082;51.038;6.992;2023-07-30T04:57:06;3.72;;;2.08;;
19842;SDS011;10082;51.038;6.992;2023-07-30T04:59:34;3.55;;;2.30;;
19842;SDS011;10082;51.038;6.992;2023-07-30T05:02:03;3.10;;;2.70;;
19842;SDS011;10082;51.038;6.992;2023-07-30T05:04:31;3.67;;;2.45;;
19842;SDS011;10082;51.038;6.992;2023-07-30T05:06:58;5.50;;;2.60;;
19842;SDS011;10082;51.038;6.992;2023-07-30T05:09:25;5.30;;;2.65;;
19842;SDS011;10082;51.038;6.992;2023-07-30T05:11:53;3.65;;;2.33;;
19842;SDS011;10082;51.038;6.992;2023-07-30T05:14:20;5.85;;;2.67;;
19842;SDS011;10082;51.038;6.992;2023-07-30T05:16:48;5.32;;;2.65;;
19842;SDS011;10082;51.038;6.992;2023-07-30T05:19:17;6.07;;;2.60;;
19842;SDS011;10082;51.038;6.992;2023-07-30T05:21:44;5.07;;;2.35;;
19842;SDS011;10082;51.038;6.992;2023-07-30T05:24:12;4.05;;;2.22;;
19842;SDS011;10082;51.038;6.992;2023-07-30T05:26:39;5.28;;;2.15;;
19842;SDS011;10082;51.038;6.992;2023-07-30T05:29:07;6.15;;;2.38;;
19842;SDS011;10082;51.038;6.992;2023-07-30T05:31:37;6.13;;;2.10;;
19842;SDS011;10082;51.038;6.992;2023-07-30T05:34:05;3.72;;;2.05;;
19842;SDS011;10082;51.038;6.992;2023-07-30T05:36:34;5.95;;;2.83;;
19842;SDS011;10082;51.038;6.992;2023-07-30T05:39:07;4.47;;;2.17;;
19842;SDS011;10082;51.038;6.992;2023-07-30T05:41:35;6.20;;;2.20;;
19842;SDS011;10082;51.038;6.992;2023-07-30T05:44:02;5.18;;;2.25;;
19842;SDS011;10082;51.038;6.992;2023-07-30T05:46:29;3.72;;;2.00;;
19842;SDS011;10082;51.038;6.992;2023-07-30T05:48:57;4.00;;;2.00;;
19842;SDS011;10082;51.038;6.992;2023-07-30T05:51:25;4.97;;;2.20;;
19842;SDS011;10082;51.038;6.992;2023-07-30T05:53:54;4.10;;;2.20;;
19842;SDS011;10082;51.038;6.992;2023-07-30T05:56:21;3.90;;;2.10;;
19842;SDS011;10082;51.038;6.992;2023-07-30T05:58:49;4.35;;;2.30;;
19842;SDS011;10082;51.038;6.992;2023-07-30T06:01:16;3.63;;;1.98;;
19842;SDS011;10082;51.038;6.992;2023-07-30T06:03:45;4.82;;;1.95;;
19842;SDS011;10082;51.038;6.992;2023-07-30T06:06:13;4.47;;;2.03;;
19842;SDS011;10082;51.038;6.992;2023-07-30T06:08:40;4.07;;;1.90;;
19842;SDS011;10082;51.038;6.992;2023-07-30T06:11:10;5.25;;;1.92;;
19842;SDS011;10082;51.038;6.992;2023-07-30T06:13:38;2.45;;;1.60;;
19842;SDS011;10082;51.038;6.992;2023-07-30T06:16:05;3.25;;;1.90;;
19842;SDS011;10082;51.038;6.992;2023-07-30T06:18:32;4.43;;;1.55;;
19842;SDS011;10082;51.038;6.992;2023-07-30T06:20:59;4.63;;;1.83;;
19842;SDS011;10082;51.038;6.992;2023-07-30T06:23:26;4.10;;;2.10;;
19842;SDS011;10082;51.038;6.992;2023-07-30T06:25:54;4.32;;;2.00;;
19842;SDS011;10082;51.038;6.992;2023-07-30T06:28:23;3.72;;;1.98;;
19842;SDS011;10082;51.038;6.992;2023-07-30T06:30:50;3.70;;;1.70;;
19842;SDS011;10082;51.038;6.992;2023-07-30T06:33:18;3.45;;;2.10;;
19842;SDS011;10082;51.038;6.992;2023-07-30T06:35:45;3.45;;;1.38;;
19842;SDS011;10082;51.038;6.992;2023-07-30T06:38:12;4.28;;;1.55;;
19842;SDS011;10082;51.038;6.992;2023-07-30T06:40:39;3.00;;;1.60;;
19842;SDS011;10082;51.038;6.992;2023-07-30T06:43:06;3.20;;;1.40;;
19842;SDS011;10082;51.038;6.992;2023-07-30T06:45:35;2.35;;;1.55;;
19842;SDS011;10082;51.038;6.992;2023-07-30T06:48:03;2.40;;;1.25;;
19842;SDS011;10082;51.038;6.992;2023-07-30T06:50:30;2.58;;;1.42;;
19842;SDS011;10082;51.038;6.992;2023-07-30T06:52:58;4.47;;;1.70;;
19842;SDS011;10082;51.038;6.992;2023-07-30T06:55:25;3.33;;;1.75;;
19842;SDS011;10082;51.038;6.992;2023-07-30T06:57:52;3.97;;;1.70;;
19842;SDS011;10082;51.038;6.992;2023-07-30T07:00:21;4.03;;;1.90;;
19842;SDS011;10082;51.038;6.992;2023-07-30T07:02:49;3.72;;;1.70;;
19842;SDS011;10082;51.038;6.992;2023-07-30T07:05:17;3.47;;;2.03;;
19842;SDS011;10082;51.038;6.992;2023-07-30T07:07:48;4.30;;;1.80;;
19842;SDS011;10082;51.038;6.992;2023-07-30T07:10:16;4.18;;;1.80;;
19842;SDS011;10082;51.038;6.992;2023-07-30T07:12:43;4.93;;;1.85;;
19842;SDS011;10082;51.038;6.992;2023-07-30T07:15:10;3.85;;;1.65;;
19842;SDS011;10082;51.038;6.992;2023-07-30T07:17:37;3.47;;;2.03;;
19842;SDS011;10082;51.038;6.992;2023-07-30T07:20:07;5.90;;;2.65;;
19842;SDS011;10082;51.038;6.992;2023-07-30T07:22:35;5.07;;;1.88;;
19842;SDS011;10082;51.038;6.992;2023-07-30T07:25:03;4.50;;;1.90;;
19842;SDS011;10082;51.038;6.992;2023-07-30T07:27:30;7.18;;;2.20;;
19842;SDS011;10082;51.038;6.992;2023-07-30T07:29:58;3.97;;;2.25;;
19842;SDS011;10082;51.038;6.992;2023-07-30T07:32:25;5.10;;;2.50;;
19842;SDS011;10082;51.038;6.992;2023-07-30T07:34:52;4.65;;;2.00;;
19842;SDS011;10082;51.038;6.992;2023-07-30T07:37:21;6.07;;;2.08;;
19842;SDS011;10082;51.038;6.992;2023-07-30T07:39:48;4.15;;;2.05;;
19842;SDS011;10082;51.038;6.992;2023-07-30T07:42:15;4.80;;;2.28;;
19842;SDS011;10082;51.038;6.992;2023-07-30T07:44:42;5.43;;;2.33;;
19842;SDS011;10082;51.038;6.992;2023-07-30T07:47:11;4.15;;;1.95;;
19842;SDS011;10082;51.038;6.992;2023-07-30T07:49:38;5.68;;;1.80;;
19842;SDS011;10082;51.038;6.992;2023-07-30T07:52:06;4.90;;;2.35;;
19842;SDS011;10082;51.038;6.992;2023-07-30T07:54:35;5.28;;;2.13;;
19842;SDS011;10082;51.038;6.992;2023-07-30T07:57:03;5.35;;;2.30;;
19842;SDS011;10082;51.038;6.992;2023-07-30T07:59:30;6.15;;;2.58;;
19842;SDS011;10082;51.038;6.992;2023-07-30T08:01:57;5.82;;;2.28;;
19842;SDS011;10082;51.038;6.992;2023-07-30T08:04:24;6.15;;;2.03;;
19842;SDS011;10082;51.038;6.992;2023-07-30T08:06:52;5.95;;;2.65;;
19842;SDS011;10082;51.038;6.992;2023-07-30T08:09:20;7.57;;;2.42;;
19842;SDS011;10082;51.038;6.992;2023-07-30T08:11:49;5.47;;;2.67;;
19842;SDS011;10082;51.038;6.992;2023-07-30T08:14:23;6.75;;;2.85;;
19842;SDS011;10082;51.038;6.992;2023-07-30T08:16:50;5.25;;;2.05;;
19842;SDS011;10082;51.038;6.992;2023-07-30T08:19:17;6.18;;;2.20;;
19842;SDS011;10082;51.038;6.992;2023-07-30T08:21:44;4.93;;;2.22;;
19842;SDS011;10082;51.038;6.992;2023-07-30T08:24:11;6.35;;;2.70;;
19842;SDS011;10082;51.038;6.992;2023-07-30T08:26:38;9.40;;;2.80;;
19842;SDS011;10082;51.038;6.992;2023-07-30T08:29:07;7.13;;;2.42;;
19842;SDS011;10082;51.038;6.992;2023-07-30T08:31:35;6.95;;;2.45;;
19842;SDS011;10082;51.038;6.992;2023-07-30T08:34:02;7.80;;;2.88;;
19842;SDS011;10082;51.038;6.992;2023-07-30T08:36:29;7.05;;;2.60;;
19842;SDS011;10082;51.038;6.992;2023-07-30T08:38:56;7.25;;;3.00;;
19842;SDS011;10082;51.038;6.992;2023-07-30T08:41:23;9.32;;;3.65;;
19842;SDS011;10082;51.038;6.992;2023-07-30T08:43:50;6.60;;;2.75;;
19842;SDS011;10082;51.038;6.992;2023-07-30T08:46:19;9.52;;;2.70;;
19842;SDS011;10082;51.038;6.992;2023-07-30T08:48:46;7.70;;;2.60;;
19842;SDS011;10082;51.038;6.992;2023-07-30T08:51:14;6.78;;;2.80;;
19842;SDS011;10082;51.038;6.992;2023-07-30T08:53:42;9.25;;;2.90;;
19842;SDS011;10082;51.038;6.992;2023-07-30T08:56:12;8.50;;;3.00;;
19842;SDS011;10082;51.038;6.992;2023-07-30T08:58:43;8.32;;;2.38;;
19842;SDS011;10082;51.038;6.992;2023-07-30T09:01:12;6.75;;;2.33;;
19842;SDS011;10082;51.038;6.992;2023-07-30T09:03:42;12.45;;;3.22;;
19842;SDS011;10082;51.038;6.992;2023-07-30T09:06:10;8.27;;;3.30;;
19842;SDS011;10082;51.038;6.992;2023-07-30T09:08:38;9.68;;;3.50;;
19842;SDS011;10082;51.038;6.992;2023-07-30T09:11:12;6.63;;;2.45;;
19842;SDS011;10082;51.038;6.992;2023-07-30T09:13:43;6.97;;;2.78;;
19842;SDS011;10082;51.038;6.992;2023-07-30T09:16:10;7.65;;;2.60;;
19842;SDS011;10082;51.038;6.992;2023-07-30T09:18:39;10.65;;;2.63;;
19842;SDS011;10082;51.038;6.992;2023-07-30T09:21:09;5.97;;;2.42;;
19842;SDS011;10082;51.038;6.992;2023-07-30T09:23:40;7.28;;;3.15;;
19842;SDS011;10082;51.038;6.992;2023-07-30T09:26:08;8.93;;;2.20;;
19842;SDS011;10082;51.038;6.992;2023-07-30T09:28:35;8.40;;;2.60;;
19842;SDS011;10082;51.038;6.992;2023-07-30T09:31:04;5.95;;;2.40;;
19842;SDS011;10082;51.038;6.992;2023-07-30T09:33:32;6.85;;;2.67;;
19842;SDS011;10082;51.038;6.992;2023-07-30T09:36:03;8.75;;;2.70;;
19842;SDS011;10082;51.038;6.992;2023-07-30T09:38:32;7.05;;;2.70;;
19842;SDS011;10082;51.038;6.992;2023-07-30T09:41:05;6.13;;;2.60;;
19842;SDS011;10082;51.038;6.992;2023-07-30T09:43:33;5.60;;;2.15;;
19842;SDS011;10082;51.038;6.992;2023-07-30T09:46:01;7.13;;;2.42;;
19842;SDS011;10082;51.038;6.992;2023-07-30T09:48:29;6.70;;;2.30;;
19842;SDS011;10082;51.038;6.992;2023-07-30T09:50:58;7.43;;;2.58;;
19842;SDS011;10082;51.038;6.992;2023-07-30T09:53:28;7.22;;;2.60;;
19842;SDS011;10082;51.038;6.992;2023-07-30T09:56:01;7.38;;;2.40;;
19842;SDS011;10082;51.038;6.992;2023-07-30T09:58:29;7.80;;;2.58;;
19842;SDS011;10082;51.038;6.992;2023-07-30T10:03:34;7.25;;;2.40;;
19842;SDS011;10082;51.038;6.992;2023-07-30T10:06:03;4.70;;;2.17;;
19842;SDS011;10082;51.038;6.992;2023-07-30T10:08:34;5.22;;;2.17;;
19842;SDS011;10082;51.038;6.992;2023-07-30T10:11:05;5.70;;;1.98;;
19842;SDS011;10082;51.038;6.992;2023-07-30T10:13:35;7.15;;;2.45;;
19842;SDS011;10082;51.038;6.992;2023-07-30T10:16:08;5.88;;;2.35;;
19842;SDS011;10082;51.038;6.992;2023-07-30T10:18:37;4.75;;;1.92;;
19842;SDS011;10082;51.038;6.992;2023-07-30T10:21:06;5.50;;;2.40;;
19842;SDS011;10082;51.038;6.992;2023-07-30T10:23:35;5.07;;;2.08;;
19842;SDS011;10082;51.038;6.992;2023-07-30T10:26:13;4.70;;;2.28;;
19842;SDS011;10082;51.038;6.992;2023-07-30T10:28:54;5.25;;;2.13;;
19842;SDS011;10082;51.038;6.992;2023-07-30T10:31:40;4.45;;;2.20;;
19842;SDS011;10082;51.038;6.992;2023-07-30T10:34:07;3.45;;;1.80;;
19842;SDS011;10082;51.038;6.992;2023-07-30T10:36:38;6.07;;;1.98;;
19842;SDS011;10082;51.038;6.992;2023-07-30T10:39:12;3.97;;;2.10;;
19842;SDS011;10082;51.038;6.992;2023-07-30T10:41:44;4.65;;;1.60;;
19842;SDS011;10082;51.038;6.992;2023-07-30T10:44:19;4.50;;;1.73;;
19842;SDS011;10082;51.038;6.992;2023-07-30T10:46:49;6.65;;;2.08;;
19842;SDS011;10082;51.038;6.992;2023-07-30T10:49:17;4.60;;;1.70;;
19842;SDS011;10082;51.038;6.992;2023-07-30T10:51:45;4.45;;;2.15;;
19842;SDS011;10082;51.038;6.992;2023-07-30T10:54:12;3.97;;;1.90;;
19842;SDS011;10082;51.038;6.992;2023-07-30T10:56:41;4.80;;;1.83;;
19842;SDS011;10082;51.038;6.992;2023-07-30T10:59:10;5.10;;;1.85;;
19842;SDS011;10082;51.038;6.992;2023-07-30T11:01:40;4.00;;;1.65;;
19842;SDS011;10082;51.038;6.992;2023-07-30T11:04:09;4.15;;;2.08;;
19842;SDS011;10082;51.038;6.992;2023-07-30T11:06:37;4.93;;;1.83;;
19842;SDS011;10082;51.038;6.992;2023-07-30T11:09:04;5.28;;;2.20;;
19842;SDS011;10082;51.038;6.992;2023-07-30T11:11:32;6.35;;;1.75;;
19842;SDS011;10082;51.038;6.992;2023-07-30T11:13:59;4.60;;;1.73;;
19842;SDS011;10082;51.038;6.992;2023-07-30T11:16:28;6.72;;;1.80;;
19842;SDS011;10082;51.038;6.992;2023-07-30T11:18:56;4.75;;;1.95;;
19842;SDS011;10082;51.038;6.992;2023-07-30T11:21:23;4.15;;;1.70;;
19842;SDS011;10082;51.038;6.992;2023-07-30T11:23:50;4.70;;;1.67;;
19842;SDS011;10082;51.038;6.992;2023-07-30T11:26:18;4.13;;;1.38;;
19842;SDS011;10082;51.038;6.992;2023-07-30T11:28:46;2.72;;;1.48;;
19842;SDS011;10082;51.038;6.992;2023-07-30T11:31:13;1.95;;;1.45;;
19842;SDS011;10082;51.038;6.992;2023-07-30T11:33:45;3.95;;;1.42;;
19842;SDS011;10082;51.038;6.992;2023-07-30T11:36:13;3.33;;;1.35;;
19842;SDS011;10082;51.038;6.992;2023-07-30T11:38:42;4.32;;;1.38;;
19842;SDS011;10082;51.038;6.992;2023-07-30T11:41:11;2.50;;;1.20;;
19842;SDS011;10082;51.038;6.992;2023-07-30T11:43:42;4.63;;;1.80;;
19842;SDS011;10082;51.038;6.992;2023-07-30T11:46:13;4.78;;;1.70;;
19842;SDS011;10082;51.038;6.992;2023-07-30T11:48:44;3.97;;;1.50;;
19842;SDS011;10082;51.038;6.992;2023-07-30T11:51:19;4.78;;;2.00;;
19842;SDS011;10082;51.038;6.992;2023-07-30T11:53:50;4.85;;;1.65;;
19842;SDS011;10082;51.038;6.992;2023-07-30T11:56:19;3.35;;;1.73;;
19842;SDS011;10082;51.038;6.992;2023-07-30T11:58:48;3.65;;;1.50;;
19842;SDS011;10082;51.038;6.992;2023-07-30T12:01:17;5.70;;;1.70;;
19842;SDS011;10082;51.038;6.992;2023-07-30T12:03:46;6.03;;;2.00;;
19842;SDS011;10082;51.038;6.992;2023-07-30T12:06:14;4.47;;;1.95;;
19842;SDS011;10082;51.038;6.992;2023-07-30T12:08:41;6.88;;;2.30;;
19842;SDS011;10082;51.038;6.992;2023-07-30T12:11:09;6.45;;;1.75;;
19842;SDS011;10082;51.038;6.992;2023-07-30T12:13:43;4.03;;;1.52;;
19842;SDS011;10082;51.038;6.992;2023-07-30T12:16:12;2.70;;;1.30;;
19842;SDS011;10082;51.038;6.992;2023-07-30T12:18:40;4.70;;;1.60;;
19842;SDS011;10082;51.038;6.992;2023-07-30T12:21:09;4.63;;;1.73;;
19842;SDS011;10082;51.038;6.992;2023-07-30T12:23:39;3.92;;;1.85;;
19842;SDS011;10082;51.038;6.992;2023-07-30T12:26:10;4.20;;;1.55;;
19842;SDS011;10082;51.038;6.992;2023-07-30T12:28:37;3.60;;;1.50;;
19842;SDS011;10082;51.038;6.992;2023-07-30T12:31:04;3.38;;;1.50;;
19842;SDS011;10082;51.038;6.992;2023-07-30T12:33:31;4.38;;;1.90;;
19842;SDS011;10082;51.038;6.992;2023-07-30T12:36:00;3.33;;;1.90;;
19842;SDS011;10082;51.038;6.992;2023-07-30T12:38:29;3.78;;;1.80;;
19842;SDS011;10082;51.038;6.992;2023-07-30T12:40:57;3.53;;;1.95;;
19842;SDS011;10082;51.038;6.992;2023-07-30T12:43:24;3.53;;;1.70;;
19842;SDS011;10082;51.038;6.992;2023-07-30T12:45:52;4.65;;;1.50;;
19842;SDS011;10082;51.038;6.992;2023-07-30T12:48:20;5.20;;;1.80;;
19842;SDS011;10082;51.038;6.992;2023-07-30T12:50:47;5.30;;;1.80;;
19842;SDS011;10082;51.038;6.992;2023-07-30T12:53:16;3.72;;;1.50;;
19842;SDS011;10082;51.038;6.992;2023-07-30T12:55:44;3.45;;;1.65;;
19842;SDS011;10082;51.038;6.992;2023-07-30T12:58:12;7.07;;;1.65;;
19842;SDS011;10082;51.038;6.992;2023-07-30T13:00:39;3.83;;;1.58;;
19842;SDS011;10082;51.038;6.992;2023-07-30T13:03:06;5.22;;;1.98;;
19842;SDS011;10082;51.038;6.992;2023-07-30T13:05:33;5.47;;;1.90;;
19842;SDS011;10082;51.038;6.992;2023-07-30T13:08:02;4.65;;;1.73;;
19842;SDS011;10082;51.038;6.992;2023-07-30T13:10:29;4.40;;;1.73;;
19842;SDS011;10082;51.038;6.992;2023-07-30T13:13:01;4.35;;;1.75;;
19842;SDS011;10082;51.038;6.992;2023-07-30T13:15:29;4.72;;;1.70;;
19842;SDS011;10082;51.038;6.992;2023-07-30T13:17:56;4.00;;;1.70;;
19842;SDS011;10082;51.038;6.992;2023-07-30T13:20:24;4.68;;;1.55;;
19842;SDS011;10082;51.038;6.992;2023-07-30T13:22:51;7.25;;;1.85;;
19842;SDS011;10082;51.038;6.992;2023-07-30T13:25:19;3.65;;;1.70;;
19842;SDS011;10082;51.038;6.992;2023-07-30T13:27:46;6.13;;;2.22;;
19842;SDS011;10082;51.038;6.992;2023-07-30T13:30:15;5.10;;;2.60;;
19842;SDS011;10082;51.038;6.992;2023-07-30T13:32:42;3.83;;;2.00;;
19842;SDS011;10082;51.038;6.992;2023-07-30T13:35:09;4.38;;;1.80;;
19842;SDS011;10082;51.038;6.992;2023-07-30T13:37:36;5.47;;;2.38;;
19842;SDS011;10082;51.038;6.992;2023-07-30T13:40:03;4.20;;;1.80;;
19842;SDS011;10082;51.038;6.992;2023-07-30T13:42:31;4.20;;;1.60;;
19842;SDS011;10082;51.038;6.992;2023-07-30T13:44:58;3.90;;;1.65;;
19842;SDS011;10082;51.038;6.992;2023-07-30T13:47:27;4.60;;;1.67;;
19842;SDS011;10082;51.038;6.992;2023-07-30T13:49:54;5.15;;;1.63;;
19842;SDS011;10082;51.038;6.992;2023-07-30T13:52:22;3.50;;;1.70;;
19842;SDS011;10082;51.038;6.992;2023-07-30T13:54:50;4.20;;;1.35;;
19842;SDS011;10082;51.038;6.992;2023-07-30T13:57:21;2.83;;;1.50;;
19842;SDS011;10082;51.038;6.992;2023-07-30T13:59:49;4.72;;;1.50;;
19842;SDS011;10082;51.038;6.992;2023-07-30T14:02:16;4.63;;;1.58;;
19842;SDS011;10082;51.038;6.992;2023-07-30T14:04:45;6.47;;;1.75;;
19842;SDS011;10082;51.038;6.992;2023-07-30T14:07:12;3.65;;;1.50;;
19842;SDS011;10082;51.038;6.992;2023-07-30T14:09:40;4.03;;;1.65;;
19842;SDS011;10082;51.038;6.992;2023-07-30T14:12:08;3.45;;;1.85;;
19842;SDS011;10082;51.038;6.992;2023-07-30T14:14:38;3.88;;;1.67;;
19842;SDS011;10082;51.038;6.992;2023-07-30T14:17:05;3.40;;;1.70;;
19842;SDS011;10082;51.038;6.992;2023-07-30T14:19:33;3.40;;;1.55;;
19842;SDS011;10082;51.038;6.992;2023-07-30T14:22:02;5.45;;;1.80;;
19842;SDS011;10082;51.038;6.992;2023-07-30T14:24:29;3.55;;;1.73;;
19842;SDS011;10082;51.038;6.992;2023-07-30T14:26:57;4.07;;;1.52;;
19842;SDS011;10082;51.038;6.992;2023-07-30T14:29:24;3.92;;;1.83;;
19842;SDS011;10082;51.038;6.992;2023-07-30T14:31:51;4.43;;;1.73;;
19842;SDS011;10082;51.038;6.992;2023-07-30T14:34:19;1.98;;;1.50;;
19842;SDS011;10082;51.038;6.992;2023-07-30T14:36:47;4.07;;;1.63;;
19842;SDS011;10082;51.038;6.992;2023-07-30T14:39:15;3.80;;;1.50;;
19842;SDS011;10082;51.038;6.992;2023-07-30T14:41:43;4.35;;;2.00;;
19842;SDS011;10082;51.038;6.992;2023-07-30T14:44:10;4.63;;;1.75;;
19842;SDS011;10082;51.038;6.992;2023-07-30T14:46:37;3.63;;;1.65;;
19842;SDS011;10082;51.038;6.992;2023-07-30T14:49:05;3.75;;;1.73;;
19842;SDS011;10082;51.038;6.992;2023-07-30T14:51:32;4.60;;;1.88;;
19842;SDS011;10082;51.038;6.992;2023-07-30T14:53:59;3.13;;;1.67;;
19842;SDS011;10082;51.038;6.992;2023-07-30T14:56:30;4.90;;;1.75;;